Time;durP1;ratioP1;P1;durP2;ratioP2;P2;SDS_P1;SDS_P2;PMS_P1;PMS_P2;Temp;Humidity;BMP_temperature;BMP_pressure;BME280_temperature;BME280_humidity;BME280_pressure;Samples;Min_cycle;Max_cycle;Signal;HPM_P1;HPM_P2
2023/03/31 00:02:23;;;;;;;35.65;19.00;;;;;;;;;;8303597;28;20129;-84
2023/03/31 00:06:27;;;;;;;37.03;19.88;;;;;;;;;;8302032;28;20033;-81
2023/03/31 00:10:32;;;;;;;37.75;20.13;;;;;;;;;;8289116;28;20045;-82
2023/03/31 00:14:35;;;;;;;41.08;18.90;;;;;;;;;;8305917;28;20045;-82
2023/03/31 00:18:39;;;;;;;26.40;15.55;;;;;;;;;;8328146;28;20053;-82
2023/03/31 00:22:45;;;;;;;30.80;17.75;;;;;;;;;;8298441;28;20064;-85
2023/03/31 00:26:48;;;;;;;35.70;18.75;;;;;;;;;;8293036;28;20056;-83
2023/03/31 00:30:52;;;;;;;32.63;17.17;;;;;;;;;;8313425;28;20514;-85
2023/03/31 00:34:55;;;;;;;21.77;12.73;;;;;;;;;;8328710;28;20041;-82
2023/03/31 00:39:01;;;;;;;31.83;15.30;;;;;;;;;;8291818;28;20081;-88
2023/03/31 00:43:04;;;;;;;27.40;18.00;;;;;;;;;;8305189;28;20050;-89
2023/03/31 00:47:13;;;;;;;26.80;15.10;;;;;;;;;;8292053;28;20046;-80
2023/03/31 00:51:16;;;;;;;29.05;16.88;;;;;;;;;;8320094;28;20076;-81
2023/03/31 00:55:26;;;;;;;32.35;18.30;;;;;;;;;;8334963;28;20045;-81
2023/03/31 00:59:33;;;;;;;27.60;16.38;;;;;;;;;;8335189;28;20046;-82
2023/03/31 01:03:37;;;;;;;29.80;18.02;;;;;;;;;;8334988;28;20476;-83
2023/03/31 01:07:43;;;;;;;30.30;17.45;;;;;;;;;;8334858;28;20416;-88
2023/03/31 01:11:48;;;;;;;33.47;19.00;;;;;;;;;;8334604;28;20128;-82
2023/03/31 01:15:51;;;;;;;34.00;17.67;;;;;;;;;;8334027;28;20052;-81
2023/03/31 01:20:10;;;;;;;31.40;17.25;;;;;;;;;;8334657;28;20045;-79
2023/03/31 01:24:48;;;;;;;26.10;15.25;;;;;;;;;;8334485;28;20413;-80
2023/03/31 01:29:00;;;;;;;28.73;15.73;;;;;;;;;;8334457;28;20045;-80
2023/03/31 01:33:23;;;;;;;27.02;15.23;;;;;;;;;;8334412;28;20112;-86
2023/03/31 01:37:59;;;;;;;20.55;12.30;;;;;;;;;;8333830;28;20061;-82
2023/03/31 01:42:12;;;;;;;24.73;14.65;;;;;;;;;;8284240;28;20057;-82
2023/03/31 01:46:28;;;;;;;20.60;11.95;;;;;;;;;;8333748;28;20056;-87
2023/03/31 01:50:35;;;;;;;22.92;12.32;;;;;;;;;;8334280;28;20063;-81
2023/03/31 01:54:49;;;;;;;23.63;13.63;;;;;;;;;;8332914;28;20046;-80
2023/03/31 01:58:59;;;;;;;20.90;12.43;;;;;;;;;;8333431;28;20072;-81
2023/03/31 02:03:06;;;;;;;21.08;12.88;;;;;;;;;;8305895;28;20049;-80
2023/03/31 02:07:16;;;;;;;27.98;16.20;;;;;;;;;;8333506;28;20045;-81
2023/03/31 02:11:20;;;;;;;22.52;14.60;;;;;;;;;;8308405;28;20064;-80
2023/03/31 02:15:31;;;;;;;18.40;11.57;;;;;;;;;;8332224;28;20077;-81
2023/03/31 02:19:39;;;;;;;22.63;11.35;;;;;;;;;;8332695;28;20119;-88
2023/03/31 02:23:44;;;;;;;29.63;17.15;;;;;;;;;;8332211;28;20477;-84
2023/03/31 02:27:51;;;;;;;20.13;12.00;;;;;;;;;;8332754;28;20052;-82
2023/03/31 02:32:01;;;;;;;27.02;19.00;;;;;;;;;;8331978;28;20052;-83
2023/03/31 02:36:06;;;;;;;21.63;13.95;;;;;;;;;;8331835;28;20506;-81
2023/03/31 02:40:12;;;;;;;20.65;11.85;;;;;;;;;;8331524;28;20425;-81
2023/03/31 02:44:17;;;;;;;20.00;11.77;;;;;;;;;;8331895;28;20045;-80
2023/03/31 02:48:24;;;;;;;24.70;13.48;;;;;;;;;;8331963;28;20536;-82
2023/03/31 02:52:50;;;;;;;29.13;15.65;;;;;;;;;;8331395;28;20041;-81
2023/03/31 02:57:13;;;;;;;23.58;13.70;;;;;;;;;;8331761;28;20072;-80
2023/03/31 03:01:34;;;;;;;23.33;13.80;;;;;;;;;;8331093;28;20038;-81
2023/03/31 03:05:48;;;;;;;22.58;12.23;;;;;;;;;;8331109;28;20052;-81
2023/03/31 03:10:01;;;;;;;28.20;14.15;;;;;;;;;;8330710;28;20041;-80
2023/03/31 03:14:14;;;;;;;26.13;14.35;;;;;;;;;;8330182;28;20098;-80
2023/03/31 03:18:17;;;;;;;26.98;14.18;;;;;;;;;;8331328;28;20458;-82
2023/03/31 03:22:22;;;;;;;38.65;23.20;;;;;;;;;;8330377;28;20045;-81
2023/03/31 03:26:26;;;;;;;27.55;15.95;;;;;;;;;;8330461;28;20467;-81
2023/03/31 03:30:29;;;;;;;26.13;15.35;;;;;;;;;;8330092;28;20052;-82
2023/03/31 03:34:32;;;;;;;30.23;17.48;;;;;;;;;;8330605;28;20437;-80
2023/03/31 03:38:36;;;;;;;25.02;12.88;;;;;;;;;;8329790;28;20049;-80
2023/03/31 03:42:39;;;;;;;23.10;15.25;;;;;;;;;;8329873;28;20049;-80
2023/03/31 03:46:42;;;;;;;52.85;32.17;;;;;;;;;;8329562;28;20053;-81
2023/03/31 03:50:46;;;;;;;35.63;20.95;;;;;;;;;;8329734;28;20045;-86
2023/03/31 03:54:50;;;;;;;30.33;18.05;;;;;;;;;;8329687;28;20051;-89
2023/03/31 03:58:53;;;;;;;38.95;20.33;;;;;;;;;;8329715;28;20049;-82
2023/03/31 04:02:56;;;;;;;29.25;16.85;;;;;;;;;;8329397;28;20074;-81
2023/03/31 04:06:58;;;;;;;30.60;17.27;;;;;;;;;;8329082;28;20045;-83
2023/03/31 04:11:03;;;;;;;27.25;13.95;;;;;;;;;;8329237;28;20052;-81
2023/03/31 04:15:07;;;;;;;22.25;12.35;;;;;;;;;;8320516;28;20049;-87
2023/03/31 04:19:12;;;;;;;17.98;10.05;;;;;;;;;;8324379;28;20582;-81
2023/03/31 04:23:15;;;;;;;27.50;13.60;;;;;;;;;;8329673;28;20102;-81
2023/03/31 04:27:20;;;;;;;20.80;11.57;;;;;;;;;;8332701;28;20045;-81
2023/03/31 04:31:25;;;;;;;22.23;11.68;;;;;;;;;;8340705;28;20410;-87
2023/03/31 04:35:41;;;;;;;19.70;10.88;;;;;;;;;;8333908;28;20128;-80
2023/03/31 04:39:45;;;;;;;17.10;9.13;;;;;;;;;;8334739;28;20068;-82
2023/03/31 04:43:50;;;;;;;16.35;8.95;;;;;;;;;;8331460;28;20041;-82
2023/03/31 04:47:52;;;;;;;16.38;9.25;;;;;;;;;;8339972;28;20041;-88
2023/03/31 04:51:55;;;;;;;16.35;8.45;;;;;;;;;;8339670;28;20418;-81
2023/03/31 04:55:58;;;;;;;14.05;8.30;;;;;;;;;;8339173;28;20045;-80
2023/03/31 05:00:06;;;;;;;15.45;7.95;;;;;;;;;;8339884;28;20074;-83
2023/03/31 05:04:09;;;;;;;15.82;7.75;;;;;;;;;;8318834;28;20068;-81
2023/03/31 05:08:12;;;;;;;16.50;8.02;;;;;;;;;;8339370;28;20057;-89
2023/03/31 05:12:18;;;;;;;13.30;7.60;;;;;;;;;;8333572;28;20053;-81
2023/03/31 05:16:23;;;;;;;14.02;7.30;;;;;;;;;;8339481;28;20042;-80
2023/03/31 05:20:26;;;;;;;11.25;6.72;;;;;;;;;;8339207;28;20045;-81
2023/03/31 05:24:28;;;;;;;10.75;6.32;;;;;;;;;;8339527;28;20055;-88
2023/03/31 05:28:31;;;;;;;10.88;5.82;;;;;;;;;;8297630;28;20037;-83
2023/03/31 05:32:36;;;;;;;12.13;5.47;;;;;;;;;;8322520;28;20046;-81
2023/03/31 05:36:39;;;;;;;11.80;6.13;;;;;;;;;;8305848;28;20128;-80
2023/03/31 05:40:42;;;;;;;9.25;5.03;;;;;;;;;;8296914;28;20192;-82
2023/03/31 05:44:45;;;;;;;9.23;5.22;;;;;;;;;;8313048;28;20051;-80
2023/03/31 05:48:49;;;;;;;12.13;5.40;;;;;;;;;;8327340;28;20041;-87
2023/03/31 05:52:52;;;;;;;9.60;5.05;;;;;;;;;;8319802;28;20072;-81
2023/03/31 05:56:55;;;;;;;9.23;4.88;;;;;;;;;;8316527;28;20046;-82
2023/03/31 06:01:06;;;;;;;9.75;4.57;;;;;;;;;;8318468;28;20073;-81
2023/03/31 06:05:10;;;;;;;8.45;4.22;;;;;;;;;;8293216;28;20053;-81
2023/03/31 06:09:13;;;;;;;8.60;4.97;;;;;;;;;;8308674;28;20179;-81
2023/03/31 06:13:16;;;;;;;10.40;4.63;;;;;;;;;;8314934;28;20050;-80
2023/03/31 06:17:19;;;;;;;10.27;5.10;;;;;;;;;;8330459;28;20124;-81
2023/03/31 06:21:24;;;;;;;9.30;4.40;;;;;;;;;;8318269;28;20536;-81
2023/03/31 06:25:27;;;;;;;8.43;4.38;;;;;;;;;;8289092;28;20096;-83
2023/03/31 06:29:29;;;;;;;9.80;4.65;;;;;;;;;;8317711;28;20071;-81
2023/03/31 06:33:33;;;;;;;8.82;4.65;;;;;;;;;;8305218;28;20413;-83
2023/03/31 06:37:38;;;;;;;10.50;4.78;;;;;;;;;;8319551;28;20069;-80
2023/03/31 06:41:40;;;;;;;10.48;4.32;;;;;;;;;;8306239;28;20051;-80
2023/03/31 06:45:43;;;;;;;9.18;4.45;;;;;;;;;;8320941;28;20042;-84
2023/03/31 06:49:46;;;;;;;12.13;5.20;;;;;;;;;;8306545;28;20240;-79
2023/03/31 06:53:50;;;;;;;7.22;3.85;;;;;;;;;;8316265;28;20134;-80
2023/03/31 06:57:53;;;;;;;13.57;5.07;;;;;;;;;;8286826;28;20066;-88
2023/03/31 07:01:56;;;;;;;11.45;4.80;;;;;;;;;;8297889;28;20045;-84
2023/03/31 07:05:59;;;;;;;9.80;4.60;;;;;;;;;;8314005;28;20049;-81
2023/03/31 07:10:04;;;;;;;13.27;5.15;;;;;;;;;;8306733;28;20042;-80
2023/03/31 07:14:07;;;;;;;10.20;4.32;;;;;;;;;;8286674;28;20042;-83
2023/03/31 07:18:11;;;;;;;10.55;4.68;;;;;;;;;;8319109;28;20048;-87
2023/03/31 07:22:14;;;;;;;9.68;4.65;;;;;;;;;;8315149;28;20560;-90
2023/03/31 07:26:18;;;;;;;7.15;4.10;;;;;;;;;;8313863;28;20046;-87
2023/03/31 07:30:23;;;;;;;8.88;4.60;;;;;;;;;;8302371;28;20392;-83
2023/03/31 07:34:26;;;;;;;8.27;3.70;;;;;;;;;;8330844;28;20052;-86
2023/03/31 07:38:29;;;;;;;8.57;3.70;;;;;;;;;;8317777;28;20109;-81
2023/03/31 07:42:33;;;;;;;7.65;3.63;;;;;;;;;;8289114;28;20046;-89
2023/03/31 07:46:36;;;;;;;7.15;4.15;;;;;;;;;;8290777;28;20672;-89
2023/03/31 07:50:39;;;;;;;7.30;3.72;;;;;;;;;;8306772;28;20125;-89
2023/03/31 07:54:42;;;;;;;8.30;4.13;;;;;;;;;;8318544;28;20375;-87
2023/03/31 07:58:47;;;;;;;6.82;4.18;;;;;;;;;;8317117;28;20045;-80
2023/03/31 08:02:50;;;;;;;9.00;4.32;;;;;;;;;;8321710;28;20451;-82
2023/03/31 08:06:53;;;;;;;9.65;3.95;;;;;;;;;;8310670;28;20053;-88
2023/03/31 08:10:56;;;;;;;7.43;4.25;;;;;;;;;;8317774;28;20053;-88
2023/03/31 08:15:02;;;;;;;8.10;4.32;;;;;;;;;;8314587;28;20091;-91
2023/03/31 08:19:05;;;;;;;6.90;4.20;;;;;;;;;;8317695;28;20042;-87
2023/03/31 08:23:10;;;;;;;6.40;3.83;;;;;;;;;;8295285;28;20084;-80
2023/03/31 08:27:13;;;;;;;10.27;4.22;;;;;;;;;;8327123;28;20041;-80
2023/03/31 08:31:20;;;;;;;8.57;4.13;;;;;;;;;;8321089;28;20046;-80
2023/03/31 08:35:23;;;;;;;8.52;3.70;;;;;;;;;;8299500;28;20417;-82
2023/03/31 08:39:26;;;;;;;7.55;4.43;;;;;;;;;;8299794;28;20049;-91
2023/03/31 08:43:32;;;;;;;7.85;4.20;;;;;;;;;;8297446;28;20505;-86
2023/03/31 08:47:38;;;;;;;13.73;6.25;;;;;;;;;;8308912;28;20141;-81
2023/03/31 08:51:43;;;;;;;9.70;5.35;;;;;;;;;;8310604;28;20456;-81
2023/03/31 08:55:49;;;;;;;6.97;4.10;;;;;;;;;;8305423;28;20470;-90
2023/03/31 08:59:57;;;;;;;8.23;4.00;;;;;;;;;;8306241;28;20541;-87
2023/03/31 09:04:17;;;;;;;8.27;4.57;;;;;;;;;;8317000;28;20491;-82
2023/03/31 09:08:35;;;;;;;6.35;4.10;;;;;;;;;;8302937;28;20520;-81
2023/03/31 09:12:50;;;;;;;7.13;3.65;;;;;;;;;;8296102;28;20141;-81
2023/03/31 09:17:00;;;;;;;6.78;3.85;;;;;;;;;;8305579;28;20038;-81
2023/03/31 09:21:12;;;;;;;11.63;4.25;;;;;;;;;;8296272;28;20056;-91
2023/03/31 09:25:18;;;;;;;10.48;3.80;;;;;;;;;;8290673;28;20049;-80
2023/03/31 09:29:30;;;;;;;8.18;3.42;;;;;;;;;;8296177;28;20057;-81
2023/03/31 09:33:33;;;;;;;8.20;3.25;;;;;;;;;;8286984;28;20048;-81
2023/03/31 09:37:38;;;;;;;5.15;3.00;;;;;;;;;;8292547;28;20057;-88
2023/03/31 09:41:45;;;;;;;7.13;3.03;;;;;;;;;;8297675;28;20073;-82
2023/03/31 09:45:47;;;;;;;7.65;4.05;;;;;;;;;;8297495;28;20046;-80
2023/03/31 09:49:50;;;;;;;7.25;3.47;;;;;;;;;;8286562;28;20056;-82
2023/03/31 09:53:58;;;;;;;5.57;3.10;;;;;;;;;;8295024;28;20049;-88
2023/03/31 09:58:02;;;;;;;7.43;2.70;;;;;;;;;;8306603;28;20045;-79
2023/03/31 10:02:39;;;;;;;6.25;2.70;;;;;;;;;;8294424;28;20103;-82
2023/03/31 10:06:42;;;;;;;6.80;3.38;;;;;;;;;;8291783;28;20182;-82
2023/03/31 10:10:49;;;;;;;4.70;2.30;;;;;;;;;;8291218;28;20046;-81
2023/03/31 10:14:54;;;;;;;6.65;2.67;;;;;;;;;;8288556;28;20053;-83
2023/03/31 10:19:13;;;;;;;4.28;2.50;;;;;;;;;;8292204;28;20470;-83
2023/03/31 10:23:23;;;;;;;6.47;2.60;;;;;;;;;;8300765;28;20509;-81
2023/03/31 10:27:29;;;;;;;5.82;2.55;;;;;;;;;;8330585;28;20050;-92
2023/03/31 10:31:37;;;;;;;4.38;2.50;;;;;;;;;;8318392;28;20584;-80
2023/03/31 10:35:40;;;;;;;9.73;2.88;;;;;;;;;;8330674;28;20049;-83
2023/03/31 10:39:44;;;;;;;6.47;2.67;;;;;;;;;;8304491;28;20045;-83
2023/03/31 10:43:52;;;;;;;6.40;3.45;;;;;;;;;;8330944;28;20045;-79
2023/03/31 10:47:57;;;;;;;8.68;5.05;;;;;;;;;;8332001;28;20045;-87
2023/03/31 10:52:01;;;;;;;10.10;5.03;;;;;;;;;;8332752;28;20049;-82
2023/03/31 10:56:14;;;;;;;6.25;2.78;;;;;;;;;;8332698;28;20056;-79
2023/03/31 11:00:28;;;;;;;9.07;3.80;;;;;;;;;;8332023;28;20049;-80
2023/03/31 11:04:51;;;;;;;9.52;3.17;;;;;;;;;;8332288;28;20068;-80
2023/03/31 11:09:06;;;;;;;8.43;4.13;;;;;;;;;;8332169;28;20404;-91
2023/03/31 11:13:20;;;;;;;4.82;2.63;;;;;;;;;;8331717;28;20049;-82
2023/03/31 11:17:35;;;;;;;6.88;2.70;;;;;;;;;;8331972;28;20041;-81
2023/03/31 11:21:50;;;;;;;5.70;2.75;;;;;;;;;;8332056;28;20587;-80
2023/03/31 11:25:59;;;;;;;4.35;2.05;;;;;;;;;;8331645;28;20049;-85
2023/03/31 11:30:10;;;;;;;7.45;3.08;;;;;;;;;;8330542;28;20168;-79
2023/03/31 11:34:51;;;;;;;6.35;3.92;;;;;;;;;;8320465;28;20482;-79
2023/03/31 11:39:10;;;;;;;6.45;3.00;;;;;;;;;;8331234;28;20064;-83
2023/03/31 11:43:21;;;;;;;4.95;2.60;;;;;;;;;;8329299;28;20072;-87
2023/03/31 11:47:27;;;;;;;5.53;2.80;;;;;;;;;;8331958;28;20045;-80
2023/03/31 11:51:47;;;;;;;7.10;3.03;;;;;;;;;;8330568;28;20057;-79
2023/03/31 11:55:54;;;;;;;6.90;3.08;;;;;;;;;;8331001;28;20379;-91
2023/03/31 12:00:00;;;;;;;7.40;3.30;;;;;;;;;;8330877;28;20053;-81
2023/03/31 12:04:07;;;;;;;6.05;3.00;;;;;;;;;;8330442;28;20474;-80
2023/03/31 12:08:16;;;;;;;5.53;3.13;;;;;;;;;;8331242;28;20056;-79
2023/03/31 12:12:22;;;;;;;9.95;4.35;;;;;;;;;;8330370;28;20111;-79
2023/03/31 12:16:33;;;;;;;7.78;4.22;;;;;;;;;;8330326;28;20052;-78
2023/03/31 12:20:40;;;;;;;7.27;3.60;;;;;;;;;;8326255;28;20128;-79
2023/03/31 12:24:45;;;;;;;7.13;3.75;;;;;;;;;;8293499;28;20785;-80
2023/03/31 12:29:00;;;;;;;9.25;3.53;;;;;;;;;;8300406;28;20137;-80
2023/03/31 12:33:06;;;;;;;4.55;3.17;;;;;;;;;;8280227;28;20105;-80
2023/03/31 12:37:33;;;;;;;6.13;2.80;;;;;;;;;;8288580;28;20144;-81
2023/03/31 12:41:46;;;;;;;7.25;3.25;;;;;;;;;;8284029;28;20058;-94
2023/03/31 12:45:57;;;;;;;6.22;3.25;;;;;;;;;;8294316;28;20074;-80
2023/03/31 12:50:27;;;;;;;5.05;2.92;;;;;;;;;;8300268;28;20152;-79
2023/03/31 12:55:13;;;;;;;6.18;3.10;;;;;;;;;;8299604;28;20041;-80
2023/03/31 12:59:29;;;;;;;4.38;2.40;;;;;;;;;;8286544;28;20391;-84
2023/03/31 13:03:45;;;;;;;6.10;2.90;;;;;;;;;;8286979;28;20100;-80
2023/03/31 13:07:48;;;;;;;12.07;5.80;;;;;;;;;;8298607;28;20410;-84
2023/03/31 13:11:51;;;;;;;8.73;3.83;;;;;;;;;;8300114;28;20120;-83
2023/03/31 13:15:56;;;;;;;6.35;2.90;;;;;;;;;;8298019;28;20506;-81
2023/03/31 13:20:16;;;;;;;7.30;2.45;;;;;;;;;;8304619;28;20489;-79
2023/03/31 13:24:22;;;;;;;9.75;3.25;;;;;;;;;;8298485;28;20478;-83
2023/03/31 13:28:38;;;;;;;6.13;2.65;;;;;;;;;;8315598;28;20054;-80
2023/03/31 13:32:47;;;;;;;5.32;2.72;;;;;;;;;;8324294;28;20054;-90
2023/03/31 13:37:08;;;;;;;7.97;2.70;;;;;;;;;;8332491;28;20092;-79
2023/03/31 13:41:27;;;;;;;5.18;2.67;;;;;;;;;;8333505;28;20485;-80
2023/03/31 13:45:58;;;;;;;5.28;2.58;;;;;;;;;;8333892;28;20049;-90
2023/03/31 13:50:29;;;;;;;5.38;2.50;;;;;;;;;;8334942;28;20069;-79
2023/03/31 13:55:02;;;;;;;7.32;2.30;;;;;;;;;;8334381;28;20037;-81
2023/03/31 13:59:42;;;;;;;4.82;2.47;;;;;;;;;;8330715;28;20136;-79
2023/03/31 14:03:59;;;;;;;6.55;2.88;;;;;;;;;;8327058;28;20527;-82
2023/03/31 14:08:10;;;;;;;5.65;2.40;;;;;;;;;;8333658;28;20051;-79
2023/03/31 14:12:21;;;;;;;7.68;2.50;;;;;;;;;;8333914;28;20041;-79
2023/03/31 14:16:25;;;;;;;5.38;2.10;;;;;;;;;;8333886;28;20047;-80
2023/03/31 14:20:37;;;;;;;9.23;2.85;;;;;;;;;;8333499;28;20056;-92
2023/03/31 14:24:52;;;;;;;5.85;2.72;;;;;;;;;;8333583;28;20128;-83
2023/03/31 14:29:10;;;;;;;4.88;2.13;;;;;;;;;;8333080;28;20041;-79
2023/03/31 14:33:33;;;;;;;4.65;1.88;;;;;;;;;;8333135;28;20042;-78
2023/03/31 14:37:36;;;;;;;5.90;2.40;;;;;;;;;;8332701;28;20509;-81
2023/03/31 14:41:43;;;;;;;6.63;3.15;;;;;;;;;;8332847;28;20050;-90
2023/03/31 14:45:46;;;;;;;5.55;2.70;;;;;;;;;;8332989;28;20120;-78
2023/03/31 14:49:59;;;;;;;8.27;3.03;;;;;;;;;;8332278;28;20045;-79
2023/03/31 14:54:03;;;;;;;8.02;3.10;;;;;;;;;;8332464;28;20394;-81
2023/03/31 14:58:10;;;;;;;7.97;3.20;;;;;;;;;;8332429;28;20473;-84
2023/03/31 15:02:17;;;;;;;10.30;5.13;;;;;;;;;;8312416;28;20375;-81
2023/03/31 15:06:25;;;;;;;11.13;4.35;;;;;;;;;;8317572;28;20509;-79
2023/03/31 15:10:38;;;;;;;10.85;5.25;;;;;;;;;;8331683;28;20048;-79
2023/03/31 15:14:46;;;;;;;9.93;4.13;;;;;;;;;;8290441;28;20138;-81
2023/03/31 15:18:53;;;;;;;6.47;3.33;;;;;;;;;;8290653;28;20475;-82
2023/03/31 15:22:57;;;;;;;7.78;3.70;;;;;;;;;;8314559;28;20045;-90
2023/03/31 15:27:07;;;;;;;8.55;3.28;;;;;;;;;;8299257;28;20042;-79
2023/03/31 15:31:15;;;;;;;8.40;3.40;;;;;;;;;;8327455;28;20124;-79
2023/03/31 15:35:22;;;;;;;6.85;3.20;;;;;;;;;;8306300;28;20062;-82
2023/03/31 15:39:28;;;;;;;6.45;3.40;;;;;;;;;;8305415;28;20132;-79
2023/03/31 15:43:42;;;;;;;6.95;3.03;;;;;;;;;;8330827;28;20057;-80
2023/03/31 15:47:52;;;;;;;6.80;3.35;;;;;;;;;;8329709;28;20397;-79
2023/03/31 15:51:56;;;;;;;4.82;3.13;;;;;;;;;;8326989;28;20038;-79
2023/03/31 15:56:00;;;;;;;8.48;3.70;;;;;;;;;;8330521;28;20041;-79
2023/03/31 16:00:06;;;;;;;6.32;3.47;;;;;;;;;;8329947;28;20045;-82
2023/03/31 16:04:13;;;;;;;6.85;3.40;;;;;;;;;;8330507;28;20115;-82
2023/03/31 16:08:21;;;;;;;18.38;9.13;;;;;;;;;;8325798;28;20513;-79
2023/03/31 16:12:29;;;;;;;9.77;4.63;;;;;;;;;;8317131;28;20542;-82
2023/03/31 16:16:33;;;;;;;7.25;3.80;;;;;;;;;;8327307;28;20056;-80
2023/03/31 16:20:41;;;;;;;13.80;5.80;;;;;;;;;;8303671;28;20045;-80
2023/03/31 16:24:45;;;;;;;12.10;6.07;;;;;;;;;;8306412;28;20078;-79
2023/03/31 16:28:51;;;;;;;7.38;3.63;;;;;;;;;;8320570;28;20042;-82
2023/03/31 16:33:01;;;;;;;10.00;4.93;;;;;;;;;;8320888;28;20041;-80
2023/03/31 16:37:10;;;;;;;8.40;5.13;;;;;;;;;;8312480;28;20053;-80
2023/03/31 16:41:14;;;;;;;13.05;5.07;;;;;;;;;;8314668;28;20041;-86
2023/03/31 16:45:20;;;;;;;8.88;4.57;;;;;;;;;;8310618;28;20514;-82
2023/03/31 16:49:23;;;;;;;9.48;4.00;;;;;;;;;;8325282;28;20052;-81
2023/03/31 16:53:29;;;;;;;21.05;14.93;;;;;;;;;;8292524;28;20100;-81
2023/03/31 16:57:32;;;;;;;14.80;9.60;;;;;;;;;;8297946;28;20045;-79
2023/03/31 17:01:36;;;;;;;13.50;9.10;;;;;;;;;;8282390;28;20055;-81
2023/03/31 17:05:40;;;;;;;9.98;5.80;;;;;;;;;;8291585;28;20105;-82
2023/03/31 17:09:44;;;;;;;4.63;3.40;;;;;;;;;;8292078;28;20149;-80
2023/03/31 17:13:49;;;;;;;12.65;5.43;;;;;;;;;;8293448;28;20037;-79
2023/03/31 17:17:53;;;;;;;14.15;7.78;;;;;;;;;;8291226;28;20073;-80
2023/03/31 17:22:00;;;;;;;9.40;6.03;;;;;;;;;;8291548;28;20050;-83
2023/03/31 17:26:08;;;;;;;12.50;6.93;;;;;;;;;;8300339;28;20409;-80
2023/03/31 17:30:12;;;;;;;17.10;9.07;;;;;;;;;;8291259;28;20094;-80
2023/03/31 17:34:16;;;;;;;13.75;6.13;;;;;;;;;;8307386;28;20651;-86
2023/03/31 17:38:21;;;;;;;14.35;7.13;;;;;;;;;;8333808;28;20509;-79
2023/03/31 17:42:27;;;;;;;17.58;12.13;;;;;;;;;;8334965;28;20366;-79
2023/03/31 17:46:31;;;;;;;17.95;8.65;;;;;;;;;;8334443;28;20050;-79
2023/03/31 17:50:46;;;;;;;24.88;15.38;;;;;;;;;;8315513;28;20397;-90
2023/03/31 17:54:50;;;;;;;11.73;6.68;;;;;;;;;;8311140;28;20076;-81
2023/03/31 17:58:56;;;;;;;12.55;6.35;;;;;;;;;;8303338;28;20133;-80
2023/03/31 18:03:21;;;;;;;14.23;8.57;;;;;;;;;;8310497;28;20552;-82
2023/03/31 18:07:24;;;;;;;14.02;7.85;;;;;;;;;;8312907;28;20042;-80
2023/03/31 18:11:34;;;;;;;14.20;6.03;;;;;;;;;;8323202;28;20045;-85
2023/03/31 18:15:40;;;;;;;15.00;6.97;;;;;;;;;;8317156;28;20077;-82
2023/03/31 18:19:51;;;;;;;25.35;18.42;;;;;;;;;;8298595;28;20073;-87
2023/03/31 18:23:56;;;;;;;17.52;12.48;;;;;;;;;;8326568;28;20053;-79
2023/03/31 18:28:01;;;;;;;17.83;10.15;;;;;;;;;;8302787;28;20098;-81
2023/03/31 18:32:08;;;;;;;18.02;9.82;;;;;;;;;;8332420;28;20053;-80
2023/03/31 18:36:16;;;;;;;21.63;10.85;;;;;;;;;;8331467;28;20065;-81
2023/03/31 18:40:22;;;;;;;16.27;8.95;;;;;;;;;;8318382;28;20046;-91
2023/03/31 18:44:27;;;;;;;16.50;8.38;;;;;;;;;;8316993;28;20049;-81
2023/03/31 18:48:35;;;;;;;14.30;9.32;;;;;;;;;;8312825;28;20053;-87
2023/03/31 18:52:43;;;;;;;17.15;10.65;;;;;;;;;;8330006;28;20049;-80
2023/03/31 18:56:48;;;;;;;20.63;10.95;;;;;;;;;;8293558;28;20046;-83
2023/03/31 19:00:53;;;;;;;63.05;29.55;;;;;;;;;;8292306;28;20050;-80
2023/03/31 19:05:00;;;;;;;32.65;17.25;;;;;;;;;;8316483;28;20564;-82
2023/03/31 19:09:08;;;;;;;36.92;23.60;;;;;;;;;;8322440;28;20076;-80
2023/03/31 19:13:16;;;;;;;22.23;9.85;;;;;;;;;;8300790;28;20456;-89
2023/03/31 19:17:20;;;;;;;24.48;11.63;;;;;;;;;;8310539;28;20048;-82
2023/03/31 19:21:31;;;;;;;25.25;12.40;;;;;;;;;;8328678;28;20496;-83
2023/03/31 19:25:35;;;;;;;20.10;10.38;;;;;;;;;;8329232;28;20497;-82
2023/03/31 19:29:39;;;;;;;18.70;9.93;;;;;;;;;;8328583;28;20054;-85
2023/03/31 19:33:45;;;;;;;19.67;9.60;;;;;;;;;;8327608;28;20050;-79
2023/03/31 19:37:56;;;;;;;18.80;8.55;;;;;;;;;;8329745;28;20056;-80
2023/03/31 19:42:01;;;;;;;17.92;9.23;;;;;;;;;;8313787;28;20077;-90
2023/03/31 19:46:06;;;;;;;17.83;8.52;;;;;;;;;;8329620;28;20417;-82
2023/03/31 19:50:12;;;;;;;13.20;7.03;;;;;;;;;;8330378;28;20489;-79
2023/03/31 19:54:19;;;;;;;16.92;8.75;;;;;;;;;;8329786;28;20061;-79
2023/03/31 19:58:23;;;;;;;16.33;8.27;;;;;;;;;;8329343;28;20655;-84
2023/03/31 20:02:29;;;;;;;14.75;8.13;;;;;;;;;;8329209;28;20052;-80
2023/03/31 20:06:35;;;;;;;16.75;8.32;;;;;;;;;;8330019;28;20038;-79
2023/03/31 20:10:42;;;;;;;21.02;7.35;;;;;;;;;;8329889;28;20049;-80
2023/03/31 20:14:49;;;;;;;22.50;9.70;;;;;;;;;;8330293;28;20056;-79
2023/03/31 20:18:55;;;;;;;21.25;9.00;;;;;;;;;;8328507;28;20530;-80
2023/03/31 20:23:02;;;;;;;19.50;9.15;;;;;;;;;;8329217;28;20050;-79
2023/03/31 20:27:09;;;;;;;12.20;6.68;;;;;;;;;;8328981;28;20413;-80
2023/03/31 20:31:14;;;;;;;19.08;9.35;;;;;;;;;;8328659;28;20456;-81
2023/03/31 20:35:21;;;;;;;25.83;11.30;;;;;;;;;;8328294;28;20053;-90
2023/03/31 20:39:26;;;;;;;49.05;19.50;;;;;;;;;;8329378;28;20057;-82
2023/03/31 20:43:34;;;;;;;26.77;10.95;;;;;;;;;;8330894;28;20042;-79
2023/03/31 20:47:38;;;;;;;49.80;18.40;;;;;;;;;;8329551;28;20049;-80
2023/03/31 20:51:41;;;;;;;34.63;13.68;;;;;;;;;;8329509;28;20051;-79
2023/03/31 20:55:45;;;;;;;20.17;8.45;;;;;;;;;;8329104;28;20056;-84
2023/03/31 20:59:51;;;;;;;27.95;13.65;;;;;;;;;;8328746;28;20050;-79
2023/03/31 21:03:57;;;;;;;45.35;25.83;;;;;;;;;;8328577;28;20136;-80
2023/03/31 21:08:01;;;;;;;12.50;6.25;;;;;;;;;;8333528;28;20125;-82
2023/03/31 21:12:05;;;;;;;13.25;5.28;;;;;;;;;;8321670;28;20049;-79
2023/03/31 21:16:09;;;;;;;11.82;5.07;;;;;;;;;;8334890;28;20520;-82
2023/03/31 21:20:12;;;;;;;12.90;5.65;;;;;;;;;;8334890;28;20394;-79
2023/03/31 21:24:15;;;;;;;12.60;5.28;;;;;;;;;;8334955;28;20053;-80
2023/03/31 21:28:20;;;;;;;14.80;6.18;;;;;;;;;;8321091;28;20107;-79
2023/03/31 21:32:25;;;;;;;26.98;12.45;;;;;;;;;;8333660;28;20059;-80
2023/03/31 21:36:28;;;;;;;27.75;13.82;;;;;;;;;;8334086;28;20060;-79
2023/03/31 21:40:31;;;;;;;37.63;20.27;;;;;;;;;;8334391;28;20045;-85
2023/03/31 21:44:33;;;;;;;28.70;12.93;;;;;;;;;;8333521;28;20140;-80
2023/03/31 21:48:38;;;;;;;13.60;6.82;;;;;;;;;;8333433;28;20038;-79
2023/03/31 21:52:41;;;;;;;14.80;6.25;;;;;;;;;;8333541;28;20046;-82
2023/03/31 21:56:43;;;;;;;16.15;6.28;;;;;;;;;;8325379;28;20046;-80
2023/03/31 22:00:47;;;;;;;16.92;8.57;;;;;;;;;;8328686;28;20091;-80
2023/03/31 22:04:51;;;;;;;15.88;8.50;;;;;;;;;;8333373;28;20480;-82
2023/03/31 22:08:54;;;;;;;21.45;9.07;;;;;;;;;;8333212;28;20049;-79
2023/03/31 22:12:57;;;;;;;16.85;7.75;;;;;;;;;;8333462;28;20382;-79
2023/03/31 22:17:00;;;;;;;24.00;10.43;;;;;;;;;;8319327;28;20121;-79
2023/03/31 22:21:14;;;;;;;27.33;12.40;;;;;;;;;;8332646;28;20045;-79
2023/03/31 22:25:17;;;;;;;15.93;9.07;;;;;;;;;;8332393;28;20048;-80
2023/03/31 22:29:20;;;;;;;16.52;8.45;;;;;;;;;;8332405;28;20041;-80
2023/03/31 22:33:23;;;;;;;16.15;7.10;;;;;;;;;;8332439;28;20680;-80
2023/03/31 22:37:27;;;;;;;20.33;7.93;;;;;;;;;;8332433;28;20053;-80
2023/03/31 22:41:30;;;;;;;19.10;7.57;;;;;;;;;;8332099;28;20042;-82
2023/03/31 22:45:36;;;;;;;18.75;7.03;;;;;;;;;;8332520;28;20541;-81
2023/03/31 22:49:39;;;;;;;15.50;6.63;;;;;;;;;;8332704;28;20486;-84
2023/03/31 22:53:43;;;;;;;14.00;6.53;;;;;;;;;;8331978;28;20045;-80
2023/03/31 22:57:47;;;;;;;13.40;5.70;;;;;;;;;;8331917;28;20049;-90
2023/03/31 23:01:51;;;;;;;13.00;6.30;;;;;;;;;;8331655;28;20041;-80
2023/03/31 23:05:54;;;;;;;11.65;6.38;;;;;;;;;;8330722;28;20076;-80
2023/03/31 23:09:59;;;;;;;17.20;7.38;;;;;;;;;;8331249;28;20073;-80
2023/03/31 23:14:03;;;;;;;16.48;6.85;;;;;;;;;;8331043;28;20041;-81
2023/03/31 23:18:06;;;;;;;22.38;8.65;;;;;;;;;;8330363;28;20068;-82
2023/03/31 23:22:09;;;;;;;36.47;12.57;;;;;;;;;;8317772;28;20051;-81
2023/03/31 23:26:14;;;;;;;20.83;9.50;;;;;;;;;;8331305;28;20113;-82
2023/03/31 23:30:17;;;;;;;16.13;7.45;;;;;;;;;;8330868;28;20044;-84
2023/03/31 23:34:20;;;;;;;19.90;8.80;;;;;;;;;;8330585;28;20571;-80
2023/03/31 23:38:23;;;;;;;16.08;8.05;;;;;;;;;;8330448;28;20049;-85
2023/03/31 23:42:27;;;;;;;18.33;8.70;;;;;;;;;;8331454;28;20053;-81
2023/03/31 23:46:32;;;;;;;17.25;7.40;;;;;;;;;;8330295;28;20071;-79
2023/03/31 23:50:35;;;;;;;11.95;6.53;;;;;;;;;;8330234;28;20449;-80
2023/03/31 23:54:37;;;;;;;13.85;8.00;;;;;;;;;;8330188;28;20470;-81
2023/03/31 23:58:43;;;;;;;16.95;7.80;;;;;;;;;;8330337;28;20064;-79
